Latest  Newer  Older  Last 2 hours animation  Current image  Latest image 
Rain/snow radar  Infrared sat images 
Real-time lightning map

All time is UTC (add 2 hours to UTC in wintertime, 3 hours to UTC in DST for Latvia local time)

2019/12/16 06:50 EVRA 160650Z 24011G22KT 200V300 9999 -SHRA SCT016CB BKN018 OVC021 05/03 Q0998 R18/290195 NOSIG
2019/12/16 06:50 EVLA 160650Z AUTO 26015KT 240V300 9999 FEW020/// BKN024/// OVC028/// 06/03 Q1003
2019/12/16 06:50 EVVA 160650Z AUTO 29017KT 9999 BKN020 OVC027 06/03 Q0999
2019/12/16 06:50 EYKA 160650Z 24021G31KT 200V260 9999 SCT025 BKN032 05/01 Q1006 R08/290095
2019/12/16 06:50 EYPA 160650Z 29011G24KT 250V330 9999 BKN027 06/02 Q1005 R19/2///95
2019/12/16 06:50 EYSA 160650Z 25018G29KT 9000 FEW018 BKN021 BKN025 04/02 Q1002 R14L/29//95 R14R/29//95 WHT NOSIG
2019/12/16 06:50 EYVI 160650Z 23015KT 9999 SCT045 03/00 Q1006 R19/2/0295 NOSIG
2019/12/16 06:50 EEKA 160650Z VRB02KT 9999 BCFG FEW011 SCT031 02/01 Q0993
2019/12/16 06:50 EEKE 160650Z 28004KT 230V320 9999 -RA SCT016 BKN022 OVC038 03/03 Q0993 R17/290195
2019/12/16 06:50 EEPU 160650Z 27005KT 9999 BKN006 03/03 Q0992
2019/12/16 06:50 EETN 160650Z VRB02KT 9999 FEW016 OVC023 02/01 Q0992 R08/290195 NOSIG
2019/12/16 06:50 EETU 160650Z 20006KT 9999 OVC010 03/02 Q0992
   RIGA AIRPORT     EVRA               56 55N  023 58E   10   X     T          6 LV
   LIEPAJA INTL     EVLA        26406  56 31N  021 06E    4   X                8 LV
   VENTPILS         EVVA               57 21N  021 33E    6   X                8 LV
   KAUNAS           EYKA               54 54N  023 55E   77   X     T          6 LT
   PALANGA INTL     EYPA               55 55N  021 03E   10   X                6 LT
   SIAULIAI INTL    EYSA               55 54N  023 24E  135   X     T          6 LT
   VILNIUS INTL     EYVI        26730  54 38N  025 17E  197   X     T          6 LT
   KARDLA           EEKA        26116  58 59N  022 50E    4   X                8 EE
   KURESSAARE       EEKE               58 14N  022 31E    4   X                8 EE
   PARNU            EEPU               58 25N  024 28E   14   X                8 EE
   TALLINN          EETN        26038  59 24N  024 49E   40   X     T          8 EE
   TARTU            EETU               58 19N  026 41E   67   X                8 EE

cloud coverage image from sat24.com and METAR data from weather.noaa.gov